• Join FlightAware (Why Join?)
  • Login
  • US Flag 
02:14PM EDT


 

Airport Tracker/Info


-or-


 

Live Flight TrackerFlight Track Log ✈ UAL3827 ✈ 20-Aug-2014 ✈ KIAH - KOKC

Flight Track Log - Related Links

Times and Time Zones

All times are in EDT time to prevent confusion due to time zone crossing. See the UAL3827 flight status page for this flight to view local times or setup timezone preferences in your user account.

Time Position Orientation Groundspeed Altitude Reporting Facility
EDT Latitude Longitude Course Direction KTS MPH feet Rate Location/Type
11:24PM 29.9661 -95.3456 North 139 160 800  Level Houston Center
11:24PM 29.9542 -95.3542 212° Southwest 166 191 1,700 1,800 Climbing Houston Center
11:25PM 29.9703 -95.3811 305° West 213 245 3,000 1,920 Climbing Houston Center
11:25PM 29.9989 -95.3825 358° North 254 292 3,700 960 Climbing Houston Center
11:26PM 30.0433 -95.3769 North 262 302 4,000 240 Climbing Houston Center
11:26PM 30.0781 -95.3753 North 284 327 4,000 960 Level Houston Center
11:27PM 30.3571 -95.5539 334° Northwest  Level FlightAware Approximate
11:27PM 30.1369 -95.3697 North 275 316 5,000  Level Houston Center
11:28PM 30.4519 -95.6066 334° Northwest  Level FlightAware Approximate
11:28PM 30.2128 -95.3814 352° North 285 328 7,500  Level Houston Center
11:29PM 30.5488 -95.6500 North  Level FlightAware Approximate
11:29PM 30.2806 -95.4336 326° Northwest 287 330 9,700  Level Houston Center
11:30PM 30.3492 -95.4931 323° Northwest 300 345 11,300 1,500 Climbing Houston Center
11:31PM 30.4250 -95.5567 324° Northwest 327 376 12,800 1,500 Climbing Houston Center
11:32PM 30.5042 -95.6253 323° Northwest 351 404 14,400 1,560 Climbing Houston Center
11:33PM 30.5903 -95.6803 331° Northwest 353 406 16,000 1,620 Climbing Houston Center
11:34PM 30.6869 -95.7317 335° Northwest 358 412 17,700 1,500 Climbing Houston Center
11:35PM 30.7786 -95.7817 335° Northwest 359 413 19,100 1,440 Climbing Houston Center
11:36PM 30.8711 -95.8317 335° Northwest 362 417 20,700 1,500 Climbing Houston Center
11:37PM 30.9650 -95.8825 335° Northwest 368 423 22,200 1,440 Climbing Houston Center
11:38PM 31.0592 -95.9336 335° Northwest 368 423 23,700 1,380 Climbing Houston Center
11:39PM 31.1558 -95.9811 337° Northwest 370 426 25,100 1,320 Climbing Houston Center
11:40PM 31.2558 -96.0192 342° North 372 428 26,500 1,380 Climbing Houston Center
11:41PM 31.3542 -96.0567 342° North 371 427 27,900 1,260 Climbing Houston Center
11:42PM 31.4489 -96.0931 342° North 375 432 29,100 1,020 Climbing Fort Worth Center
11:43PM 31.5494 -96.1317 342° North 378 435 30,000 420 Climbing Fort Worth Center
11:44PM 31.6567 -96.1744 341° North 405 466 30,000  Level Fort Worth Center
11:45PM 31.7714 -96.2183 342° North 431 496 30,000  Level Fort Worth Center
11:46PM 31.9022 -96.2706 341° North 451 519 30,000 -180 Level Fort Worth Center
11:47PM 32.0183 -96.3169 341° North 443 510 29,700 -780 Descending Fort Worth Center
11:48PM 32.1344 -96.3625 342° North 441 507 28,500 -840 Descending Fort Worth Center
11:49PM 32.2519 -96.4078 342° North 444 511 28,000 -300 Descending Fort Worth Center
11:50PM 32.3703 -96.4528 342° North 447 514 28,000  Level Fort Worth Center
11:51PM 32.4889 -96.4958 343° North 446 513 28,000  Level Fort Worth Center
11:52PM 32.6325 -96.5494 343° North 447 514 28,000  Level Fort Worth Center
11:53PM 32.7531 -96.5969 342° North 454 522 28,000  Level Fort Worth Center
11:54PM 32.8742 -96.6431 342° North 456 525 28,000  Level Fort Worth Center
11:55PM 32.9958 -96.6875 343° North 460 529 28,000  Level Fort Worth Center
11:56PM 33.1150 -96.7300 343° North 448 516 28,000  Level Fort Worth Center
11:57PM 33.2367 -96.7758 343° North 460 529 28,000  Level Fort Worth Center
11:58PM 33.3567 -96.8236 342° North 459 528 28,000  Level Fort Worth Center
11:59PM 33.4792 -96.8672 343° North 460 529 28,000  Level Fort Worth Center
12:00AM 33.5997 -96.9119 343° North 459 528 28,000  Level Fort Worth Center
12:01AM 33.7439 -96.9661 343° North 457 526 28,000  Level Fort Worth Center
12:02AM 33.8647 -97.0128 342° North 457 526 28,000  Level Fort Worth Center
12:03AM 33.9856 -97.0592 342° North 456 525 28,000  Level Fort Worth Center
12:04AM 34.1103 -97.1064 343° North 455 524 28,000 -660 Level Fort Worth Center
12:05AM 34.2250 -97.1489 343° North 436 502 26,700 -1,920 Descending Fort Worth Center
12:06AM 34.3322 -97.1897 343° North 408 470 24,200 -2,460 Descending Fort Worth Center
12:07AM 34.4339 -97.2325 341° North 386 444 21,700 -2,460 Descending Fort Worth Center
12:08AM 34.5314 -97.2697 343° North 370 426 19,200 -2,460 Descending Fort Worth Center
12:09AM 34.6300 -97.3069 343° North 372 428 16,700 -2,640 Descending Fort Worth Center
12:10AM 34.6686 -97.3186 346° North 377 434 15,800 -2,520 Descending Fort Worth Center
12:10AM 34.7311 -97.3433 342° North 376 433 14,200 -2,520 Descending Fort Worth Center
12:11AM 34.7744 -97.3589 344° North 377 434 13,000 -2,400 Descending Fort Worth Center
12:11AM 34.8289 -97.3817 341° North 371 427 11,800 -1,920 Descending Fort Worth Center
12:12AM 34.8719 -97.3983 342° North 366 421 11,100 -1,200 Descending Fort Worth Center
12:12AM 34.9228 -97.4158 344° North 357 411 10,600 -1,200 Descending Fort Worth Center
12:13AM 34.9756 -97.4189 357° North 306 352 9,800 -1,500 Descending Fort Worth Center
12:13AM 35.0192 -97.4261 352° North 302 348 9,100 -1,380 Descending Fort Worth Center
12:14AM 35.0547 -97.4306 354° North 275 316 8,400 -1,500 Descending Fort Worth Center
12:14AM 35.0986 -97.4364 354° North 290 334 7,600 -1,500 Descending Fort Worth Center
12:15AM 35.1403 -97.4414 354° North 289 333 6,800 -1,500 Descending Fort Worth Center
12:15AM 35.1797 -97.4450 356° North 293 337 6,100 -1,560 Descending Fort Worth Center
12:16AM 35.2172 -97.4486 356° North 297 342 5,400 -1,500 Descending Fort Worth Center
12:16AM 35.2622 -97.4542 354° North 296 341 4,600 -1,200 Descending Fort Worth Center
12:17AM 35.3006 -97.4600 353° North 305 351 4,200 -600 Descending Fort Worth Center
12:17AM 35.3461 -97.4653 355° North 303 349 4,000 -240 Descending Fort Worth Center
12:18AM 35.3839 -97.4686 356° North 298 343 4,000 -420 Level Fort Worth Center
12:18AM 35.4292 -97.4764 352° North 278 320 3,600 -780 Descending Fort Worth Center
12:19AM 35.4506 -97.4803 352° North 255 293 3,300 -600 Descending Fort Worth Center
12:20AM 35.4806 -97.5097 321° Northwest 222 255 3,000 -300 Descending Fort Worth Center
12:20AM 35.4822 -97.5367 274° West 191 220 3,000 -300 Level Fort Worth Center
12:21AM 35.4783 -97.5731 263° West 189 217 2,700 -600 Descending Fort Worth Center
12:21AM 35.4653 -97.5886 224° Southwest 115 132 2,300 -600 Descending Fort Worth Center
12:22AM 35.4522 -97.5892 182° South 112 129 2,100 -480 Descending Fort Worth Center
12:22AM 35.4314 -97.5892 180° South 95 109 1,800 -540 Descending Fort Worth Center
12:23AM 35.4206 -97.5894 181° South 107 123 1,600 -600 Descending Fort Worth Center